Time;durP1;ratioP1;P1;durP2;ratioP2;P2;SDS_P1;SDS_P2;PMS_P1;PMS_P2;Temp;Humidity;BMP_temperature;BMP_pressure;BME280_temperature;BME280_humidity;BME280_pressure;Samples;Min_cycle;Max_cycle;Signal;HPM_P1;HPM_P2
2022/11/23 00:01:32;;;;;;;2.28;1.23;;;20.40;63.90;;;;;;5032408;27;89975;-80
2022/11/23 00:04:01;;;;;;;3.45;1.60;;;20.40;63.80;;;;;;5031445;27;87844;-80
2022/11/23 00:06:27;;;;;;;3.77;1.70;;;20.40;63.70;;;;;;5036658;27;87919;-79
2022/11/23 00:08:53;;;;;;;3.20;1.60;;;20.40;64.00;;;;;;5035918;27;87352;-80
2022/11/23 00:11:20;;;;;;;2.35;1.30;;;20.40;63.60;;;;;;5035985;27;88135;-80
2022/11/23 00:13:46;;;;;;;2.72;1.60;;;20.40;63.60;;;;;;5034856;27;86852;-80
2022/11/23 00:16:13;;;;;;;3.88;1.60;;;20.40;63.70;;;;;;5036024;27;87564;-80
2022/11/23 00:18:38;;;;;;;2.25;1.42;;;20.40;63.80;;;;;;5036471;27;91133;-80
2022/11/23 00:21:08;;;;;;;3.97;1.98;;;20.30;63.70;;;;;;5035447;27;89619;-80
2022/11/23 00:23:34;;;;;;;3.30;1.65;;;20.30;63.80;;;;;;5039748;27;88657;-80
2022/11/23 00:26:00;;;;;;;2.05;1.35;;;20.30;63.80;;;;;;5036609;27;87259;-80
2022/11/23 00:28:25;;;;;;;2.30;1.25;;;20.30;63.90;;;;;;5036960;27;87572;-80
2022/11/23 00:30:51;;;;;;;2.40;1.27;;;20.30;63.90;;;;;;5036756;27;89089;-80
2022/11/23 00:33:17;;;;;;;2.15;1.52;;;20.30;63.90;;;;;;5035285;27;88609;-80
2022/11/23 00:35:43;;;;;;;2.33;1.30;;;20.30;64.00;;;;;;5036623;27;87997;-80
2022/11/23 00:38:09;;;;;;;3.83;1.80;;;20.30;63.90;;;;;;5031416;27;90069;-80
2022/11/23 00:40:34;;;;;;;3.00;1.50;;;20.30;63.80;;;;;;5034859;27;87698;-80
2022/11/23 00:43:00;;;;;;;2.58;1.20;;;20.20;63.80;;;;;;5032466;27;87186;-80
2022/11/23 00:45:25;;;;;;;1.83;1.13;;;20.20;63.80;;;;;;5033020;27;88578;-80
2022/11/23 00:47:51;;;;;;;2.70;1.60;;;20.20;63.90;;;;;;5035521;27;87152;-80
2022/11/23 00:50:16;;;;;;;3.85;1.60;;;20.20;63.80;;;;;;5033482;27;88513;-80
2022/11/23 00:52:42;;;;;;;3.10;1.63;;;20.20;63.90;;;;;;5034872;27;87702;-80
2022/11/23 00:55:08;;;;;;;3.08;1.50;;;20.20;63.90;;;;;;5037619;27;87771;-80
2022/11/23 00:57:34;;;;;;;3.17;1.70;;;20.20;63.80;;;;;;5036353;27;87157;-80
2022/11/23 01:00:00;;;;;;;3.50;1.48;;;20.20;63.80;;;;;;5034797;27;88043;-80
2022/11/23 01:02:25;;;;;;;2.92;1.48;;;20.10;63.80;;;;;;5035377;27;89800;-80
2022/11/23 01:04:51;;;;;;;2.20;1.15;;;20.20;63.60;;;;;;5034173;27;87119;-80
2022/11/23 01:07:16;;;;;;;2.90;1.25;;;20.10;63.80;;;;;;5035502;27;87461;-80
2022/11/23 01:09:42;;;;;;;2.72;1.45;;;20.10;63.80;;;;;;5032314;27;89025;-80
2022/11/23 01:12:08;;;;;;;1.88;1.10;;;20.10;63.80;;;;;;5015522;27;91970;-81
2022/11/23 01:14:34;;;;;;;2.78;1.45;;;20.10;63.80;;;;;;5033318;27;87461;-80
2022/11/23 01:16:59;;;;;;;2.42;1.60;;;20.10;63.80;;;;;;5031872;27;87253;-80
2022/11/23 01:19:25;;;;;;;1.80;1.15;;;20.10;63.80;;;;;;5031788;27;88717;-80
2022/11/23 01:21:50;;;;;;;2.13;1.52;;;20.10;63.80;;;;;;5030222;27;87280;-80
2022/11/23 01:24:20;;;;;;;3.97;1.70;;;20.10;63.80;;;;;;5031407;27;87651;-80
2022/11/23 01:26:51;;;;;;;3.35;1.48;;;20.10;63.90;;;;;;5033902;27;86718;-80
2022/11/23 01:29:17;;;;;;;1.90;1.20;;;20.10;63.80;;;;;;5032846;27;88544;-80
2022/11/23 01:31:42;;;;;;;2.45;1.10;;;20.10;63.60;;;;;;5035093;27;89639;-80
2022/11/23 01:34:11;;;;;;;1.95;1.20;;;20.10;63.60;;;;;;5033126;27;88369;-81
2022/11/23 01:36:37;;;;;;;2.67;1.50;;;20.00;63.60;;;;;;5034276;27;89523;-80
2022/11/23 01:39:04;;;;;;;2.05;1.00;;;20.10;63.80;;;;;;5032833;27;89813;-80
2022/11/23 01:41:38;;;;;;;1.50;1.08;;;20.00;63.90;;;;;;5033327;27;88836;-81
2022/11/23 01:44:32;;;;;;;2.38;1.40;;;20.00;63.90;;;;;;5033114;27;86996;-81
2022/11/23 01:47:00;;;;;;;2.05;1.50;;;20.00;63.80;;;;;;5031567;27;87379;-80
2022/11/23 01:49:42;;;;;;;2.97;1.38;;;20.00;63.80;;;;;;5034189;27;88200;-80
2022/11/23 01:52:18;;;;;;;1.27;1.13;;;20.00;63.90;;;;;;5033095;27;87817;-81
2022/11/23 01:54:48;;;;;;;2.03;1.30;;;20.00;63.90;;;;;;5014997;28;87695;-80
2022/11/23 01:57:21;;;;;;;2.25;1.00;;;20.00;64.00;;;;;;5031766;27;87578;-80
2022/11/23 01:59:48;;;;;;;2.10;1.10;;;20.00;64.00;;;;;;5018812;27;89476;-80
2022/11/23 02:02:15;;;;;;;2.85;1.25;;;20.00;63.80;;;;;;5011337;28;88458;-80
2022/11/23 02:04:45;;;;;;;3.03;1.35;;;20.00;64.00;;;;;;5013133;28;87308;-80
2022/11/23 02:07:12;;;;;;;2.47;1.33;;;20.00;63.90;;;;;;5013990;27;87785;-80
2022/11/23 02:09:38;;;;;;;2.28;1.30;;;19.90;63.80;;;;;;5015060;28;89101;-80
2022/11/23 02:12:10;;;;;;;1.88;1.30;;;19.90;63.90;;;;;;5011764;28;88832;-80
2022/11/23 02:14:35;;;;;;;1.88;1.00;;;19.90;63.80;;;;;;5015893;28;87593;-81
2022/11/23 02:17:01;;;;;;;2.33;1.30;;;19.90;63.70;;;;;;5011869;28;88620;-80
2022/11/23 02:20:09;;;;;;;2.33;1.27;;;19.90;63.80;;;;;;5009351;28;88210;-80
2022/11/23 02:22:49;;;;;;;1.90;1.10;;;19.90;63.70;;;;;;4923281;28;88230;-81
2022/11/23 02:25:29;;;;;;;2.47;1.30;;;19.90;63.90;;;;;;4923052;28;88423;-80
2022/11/23 02:27:56;;;;;;;2.17;1.30;;;19.90;63.80;;;;;;4922640;28;87723;-80
2022/11/23 02:30:21;;;;;;;1.98;1.20;;;19.90;63.80;;;;;;4922467;28;87720;-80
2022/11/23 02:32:47;;;;;;;1.65;1.15;;;19.90;63.70;;;;;;4923649;28;87813;-80
2022/11/23 02:35:12;;;;;;;2.10;1.17;;;19.90;63.90;;;;;;4925588;28;87907;-80
2022/11/23 02:37:40;;;;;;;1.42;1.00;;;19.90;63.70;;;;;;4926633;28;87641;-80
2022/11/23 02:40:18;;;;;;;1.75;1.15;;;19.90;63.80;;;;;;4926685;28;87681;-80
2022/11/23 02:42:44;;;;;;;2.08;1.17;;;19.80;63.60;;;;;;4926304;28;91641;-80
2022/11/23 02:45:47;;;;;;;1.88;1.35;;;19.80;63.70;;;;;;4926236;28;87626;-80
2022/11/23 02:48:12;;;;;;;1.70;1.23;;;19.80;63.80;;;;;;4926165;28;87558;-80
2022/11/23 02:50:38;;;;;;;1.52;0.95;;;19.80;63.80;;;;;;4925791;28;89394;-81
2022/11/23 02:53:04;;;;;;;2.60;1.20;;;19.80;63.60;;;;;;4926290;28;89147;-80
2022/11/23 02:55:29;;;;;;;1.98;1.30;;;19.80;63.60;;;;;;4925026;28;88569;-80
2022/11/23 02:57:55;;;;;;;1.65;1.10;;;19.80;63.60;;;;;;4926354;28;89133;-80
2022/11/23 03:00:20;;;;;;;1.90;1.25;;;19.80;63.80;;;;;;5008952;28;88683;-81
2022/11/23 03:02:46;;;;;;;3.13;1.48;;;19.80;64.00;;;;;;5018654;27;87758;-80
2022/11/23 03:05:12;;;;;;;2.75;1.55;;;19.80;64.00;;;;;;5019191;28;87555;-80
2022/11/23 03:07:37;;;;;;;3.00;1.48;;;19.80;63.90;;;;;;5013321;28;86567;-80
2022/11/23 03:10:04;;;;;;;2.60;1.25;;;19.80;63.90;;;;;;5017029;28;88184;-80
2022/11/23 03:12:29;;;;;;;2.10;1.30;;;19.70;63.70;;;;;;5015756;28;90171;-80
2022/11/23 03:14:55;;;;;;;2.20;1.10;;;19.80;63.90;;;;;;5018331;28;88476;-80
2022/11/23 03:17:21;;;;;;;4.53;1.50;;;19.80;63.90;;;;;;5015058;27;87391;-80
2022/11/23 03:19:46;;;;;;;2.50;1.67;;;19.70;63.80;;;;;;5014125;28;88775;-80
2022/11/23 03:22:12;;;;;;;2.60;1.30;;;19.70;64.00;;;;;;5015126;28;87897;-80
2022/11/23 03:24:38;;;;;;;1.95;1.00;;;19.70;64.40;;;;;;5015493;28;87570;-81
2022/11/23 03:27:03;;;;;;;3.50;1.33;;;19.70;64.00;;;;;;5016484;28;87466;-81
2022/11/23 03:29:29;;;;;;;1.30;0.95;;;19.70;63.70;;;;;;5014049;28;88311;-80
2022/11/23 03:31:55;;;;;;;2.53;1.35;;;19.70;63.90;;;;;;5023941;27;87080;-80
2022/11/23 03:34:21;;;;;;;1.98;1.20;;;19.70;64.10;;;;;;5034079;27;87514;-80
2022/11/23 03:36:46;;;;;;;1.50;1.08;;;19.70;63.80;;;;;;5014866;28;88241;-80
2022/11/23 03:39:12;;;;;;;2.50;1.23;;;19.70;63.80;;;;;;5013583;27;88491;-80
2022/11/23 03:41:38;;;;;;;2.60;1.38;;;19.70;63.90;;;;;;5026127;27;95858;-81
2022/11/23 03:44:03;;;;;;;2.20;1.10;;;19.70;64.00;;;;;;5034538;27;87004;-80
2022/11/23 03:46:29;;;;;;;2.42;1.30;;;19.70;63.90;;;;;;5035631;27;88525;-80
2022/11/23 03:48:55;;;;;;;1.67;1.20;;;19.70;64.00;;;;;;5037041;27;88648;-80
2022/11/23 03:51:21;;;;;;;1.80;1.10;;;19.70;63.80;;;;;;5037005;27;87863;-80
2022/11/23 03:53:46;;;;;;;2.03;1.40;;;19.70;63.50;;;;;;5033939;27;87205;-81
2022/11/23 03:56:12;;;;;;;1.77;1.33;;;19.60;63.60;;;;;;5036375;27;86498;-80
2022/11/23 03:58:37;;;;;;;1.42;0.95;;;19.70;63.60;;;;;;5031837;27;88607;-80
2022/11/23 04:01:03;;;;;;;2.08;1.30;;;19.60;63.60;;;;;;5035176;27;87998;-80
2022/11/23 04:03:28;;;;;;;1.05;0.90;;;19.60;63.70;;;;;;5037954;27;88473;-80
2022/11/23 04:05:54;;;;;;;2.05;1.33;;;19.60;63.80;;;;;;5038264;27;87504;-81
2022/11/23 04:08:20;;;;;;;2.60;1.10;;;19.60;63.70;;;;;;5033964;27;87571;-80
2022/11/23 04:10:45;;;;;;;1.75;1.20;;;19.60;63.60;;;;;;5034742;27;88230;-80
2022/11/23 04:13:11;;;;;;;2.88;1.20;;;19.60;63.70;;;;;;5032920;27;87018;-80
2022/11/23 04:15:37;;;;;;;2.97;1.33;;;19.60;63.70;;;;;;5034606;27;87188;-80
2022/11/23 04:18:03;;;;;;;1.92;1.35;;;19.60;63.60;;;;;;5027645;27;88655;-80
2022/11/23 04:20:28;;;;;;;1.20;1.10;;;19.60;63.60;;;;;;5032540;27;87342;-80
2022/11/23 04:22:54;;;;;;;1.70;1.20;;;19.60;63.70;;;;;;5029459;27;87341;-80
2022/11/23 04:25:19;;;;;;;1.80;1.10;;;19.60;63.80;;;;;;5015479;28;87834;-80
2022/11/23 04:27:45;;;;;;;2.10;0.98;;;19.50;63.70;;;;;;5014967;27;90767;-80
2022/11/23 04:30:11;;;;;;;2.17;1.23;;;19.60;63.80;;;;;;5014140;28;89219;-80
2022/11/23 04:32:37;;;;;;;1.70;1.20;;;19.50;63.80;;;;;;5016289;28;86956;-80
2022/11/23 04:35:03;;;;;;;2.40;1.10;;;19.50;63.70;;;;;;5013599;28;87577;-81
2022/11/23 04:37:29;;;;;;;1.92;1.00;;;19.50;63.80;;;;;;5012823;28;88041;-81
2022/11/23 04:39:54;;;;;;;2.72;1.50;;;19.50;63.70;;;;;;5013597;27;87502;-80
2022/11/23 04:42:20;;;;;;;1.02;0.85;;;19.50;63.60;;;;;;5016731;28;87581;-80
2022/11/23 04:44:46;;;;;;;1.65;1.15;;;19.50;63.70;;;;;;4997233;28;87996;-81
2022/11/23 04:47:11;;;;;;;1.27;1.00;;;19.50;63.70;;;;;;5012445;28;88194;-80
2022/11/23 04:49:37;;;;;;;1.67;1.05;;;19.50;63.60;;;;;;5015338;28;87881;-80
2022/11/23 04:52:04;;;;;;;2.10;1.23;;;19.50;63.50;;;;;;5015052;28;88072;-80
2022/11/23 04:54:29;;;;;;;1.70;1.10;;;19.50;63.40;;;;;;5016585;27;87322;-80
2022/11/23 04:56:55;;;;;;;1.92;1.10;;;19.50;63.50;;;;;;5010604;27;89262;-80
2022/11/23 04:59:21;;;;;;;2.13;1.15;;;19.50;63.70;;;;;;5012439;28;87715;-80
2022/11/23 05:01:48;;;;;;;2.55;1.15;;;19.50;63.80;;;;;;5015733;28;87399;-80
2022/11/23 05:04:13;;;;;;;1.30;1.00;;;19.50;63.60;;;;;;5010350;28;87278;-80
2022/11/23 05:06:39;;;;;;;1.95;1.00;;;19.50;63.50;;;;;;5015979;28;88893;-80
2022/11/23 05:09:05;;;;;;;2.45;1.38;;;19.50;63.50;;;;;;5014283;27;88175;-80
2022/11/23 05:11:30;;;;;;;1.88;1.02;;;19.40;63.50;;;;;;5015301;28;87682;-80
2022/11/23 05:13:56;;;;;;;1.30;0.95;;;19.50;63.60;;;;;;5016624;28;88173;-80
2022/11/23 05:16:22;;;;;;;1.95;1.00;;;19.40;63.30;;;;;;5013634;28;88592;-80
2022/11/23 05:18:47;;;;;;;1.63;1.00;;;19.40;63.50;;;;;;5010351;28;89168;-80
2022/11/23 05:21:13;;;;;;;1.70;1.20;;;19.40;63.50;;;;;;5011800;28;88655;-80
2022/11/23 05:23:38;;;;;;;1.38;1.08;;;19.40;63.50;;;;;;5013873;27;87466;-80
2022/11/23 05:26:04;;;;;;;1.90;0.93;;;19.40;63.30;;;;;;5015326;28;88193;-80
2022/11/23 05:28:30;;;;;;;1.65;0.80;;;19.40;63.30;;;;;;5013220;28;88702;-81
2022/11/23 05:30:55;;;;;;;2.38;1.20;;;19.40;63.60;;;;;;5015160;28;87575;-80
2022/11/23 05:33:21;;;;;;;1.73;1.10;;;19.40;63.50;;;;;;5012938;28;87370;-80
2022/11/23 05:35:47;;;;;;;1.95;1.10;;;19.40;63.30;;;;;;5012483;28;88070;-80
2022/11/23 05:38:12;;;;;;;2.67;1.30;;;19.40;63.50;;;;;;5015100;27;88153;-80
2022/11/23 05:40:38;;;;;;;1.27;0.98;;;19.40;63.40;;;;;;5014619;28;87924;-80
2022/11/23 05:43:04;;;;;;;1.60;0.82;;;19.40;63.30;;;;;;5016773;28;87534;-80
2022/11/23 05:45:29;;;;;;;2.42;1.08;;;19.40;63.20;;;;;;5015643;28;89839;-80
2022/11/23 05:47:56;;;;;;;1.73;1.10;;;19.40;63.20;;;;;;5016802;28;88715;-81
2022/11/23 05:50:24;;;;;;;1.83;1.20;;;19.40;63.20;;;;;;5011872;27;87441;-80
2022/11/23 05:52:50;;;;;;;1.05;0.93;;;19.30;63.20;;;;;;5016915;28;87351;-80
2022/11/23 05:55:16;;;;;;;1.60;1.00;;;19.30;63.20;;;;;;5014909;28;88260;-80
2022/11/23 05:57:42;;;;;;;1.55;1.10;;;19.30;63.30;;;;;;5014374;28;87966;-80
2022/11/23 06:00:11;;;;;;;1.58;0.95;;;19.30;63.30;;;;;;5015335;28;87812;-80
2022/11/23 06:02:37;;;;;;;;;;;19.30;63.30;;;;;;5015264;28;87840;-80
2022/11/23 06:05:03;;;;;;;2.42;1.20;;;19.30;63.50;;;;;;5016954;27;89078;-80
2022/11/23 06:07:31;;;;;;;2.53;1.27;;;19.30;63.50;;;;;;5014513;28;88339;-80
2022/11/23 06:09:57;;;;;;;1.42;1.02;;;19.30;63.50;;;;;;5012411;28;86965;-80
2022/11/23 06:12:23;;;;;;;1.13;0.90;;;19.30;63.30;;;;;;5012491;28;87783;-80
2022/11/23 06:14:48;;;;;;;1.00;0.90;;;19.30;63.30;;;;;;5014458;28;88349;-80
2022/11/23 06:17:14;;;;;;;1.35;1.00;;;19.30;63.30;;;;;;5013779;28;87063;-80
2022/11/23 06:19:39;;;;;;;1.58;0.98;;;19.30;63.30;;;;;;5012267;27;87347;-80
2022/11/23 06:22:05;;;;;;;1.67;1.05;;;19.30;63.30;;;;;;5013942;28;86923;-80
2022/11/23 06:24:30;;;;;;;1.60;1.00;;;19.30;63.20;;;;;;5011992;28;88123;-80
2022/11/23 06:26:56;;;;;;;2.08;1.20;;;19.20;63.10;;;;;;5014683;28;87914;-80
2022/11/23 06:29:22;;;;;;;1.20;0.90;;;19.20;63.20;;;;;;4993603;28;88208;-80
2022/11/23 06:31:47;;;;;;;2.20;1.25;;;19.30;63.30;;;;;;5014325;27;87628;-80
2022/11/23 06:34:13;;;;;;;1.38;0.88;;;19.20;63.30;;;;;;5014797;27;89040;-80
2022/11/23 06:36:38;;;;;;;2.03;1.27;;;19.20;63.30;;;;;;5032285;27;91598;-80
2022/11/23 06:39:04;;;;;;;2.95;1.30;;;19.20;63.50;;;;;;5015181;27;87265;-80
2022/11/23 06:41:30;;;;;;;1.83;1.05;;;19.20;63.40;;;;;;5012262;27;87412;-80
2022/11/23 06:43:55;;;;;;;1.88;1.20;;;19.20;63.10;;;;;;5012032;28;87882;-80
2022/11/23 06:46:21;;;;;;;2.47;1.20;;;19.20;63.20;;;;;;5009997;28;86693;-80
2022/11/23 06:48:47;;;;;;;2.65;1.10;;;19.20;63.20;;;;;;5014875;27;87558;-80
2022/11/23 06:51:14;;;;;;;1.25;0.93;;;19.20;63.20;;;;;;5011611;28;87151;-80
2022/11/23 06:53:40;;;;;;;2.10;0.85;;;19.20;63.10;;;;;;5009789;28;92737;-80
2022/11/23 06:56:06;;;;;;;1.83;1.20;;;19.20;63.10;;;;;;5009507;28;89053;-80
2022/11/23 06:58:31;;;;;;;2.03;0.95;;;19.20;63.10;;;;;;5011460;28;87403;-80
2022/11/23 07:01:05;;;;;;;1.67;0.90;;;19.20;63.10;;;;;;5009180;27;87148;-80
2022/11/23 07:03:31;;;;;;;1.27;0.95;;;19.20;63.00;;;;;;4996522;28;90737;-81
2022/11/23 07:05:57;;;;;;;2.35;0.90;;;19.10;63.10;;;;;;5014745;28;88159;-80
2022/11/23 07:08:23;;;;;;;3.50;1.10;;;19.10;63.40;;;;;;5012409;28;87044;-80
2022/11/23 07:10:48;;;;;;;1.45;0.98;;;19.20;64.20;;;;;;5010710;28;87502;-80
2022/11/23 07:13:14;;;;;;;1.58;1.10;;;19.20;63.40;;;;;;5010618;28;88087;-80
2022/11/23 07:15:41;;;;;;;1.15;0.88;;;19.10;63.30;;;;;;5012508;27;88197;-80
2022/11/23 07:18:08;;;;;;;0.98;0.85;;;19.10;63.20;;;;;;5012078;28;88540;-80
2022/11/23 07:20:34;;;;;;;2.90;1.30;;;19.20;63.20;;;;;;5015794;28;90324;-80
2022/11/23 07:23:02;;;;;;;2.35;1.20;;;19.10;63.10;;;;;;5013497;28;87522;-79
2022/11/23 07:25:32;;;;;;;0.80;0.80;;;19.10;63.10;;;;;;5015633;28;87486;-80
2022/11/23 07:27:59;;;;;;;2.13;1.33;;;19.10;63.00;;;;;;5013188;28;87028;-80
2022/11/23 07:30:26;;;;;;;1.30;0.73;;;19.10;62.90;;;;;;5018829;27;87412;-80
2022/11/23 07:32:52;;;;;;;1.98;1.02;;;19.20;63.00;;;;;;5014114;28;88506;-80
2022/11/23 07:35:19;;;;;;;2.38;1.00;;;19.10;63.10;;;;;;5013851;28;87901;-79
2022/11/23 07:37:45;;;;;;;1.67;1.13;;;19.10;63.10;;;;;;5012630;28;87726;-80
2022/11/23 07:40:11;;;;;;;1.95;1.08;;;19.10;63.20;;;;;;5017615;28;87386;-81
2022/11/23 07:42:36;;;;;;;2.50;1.27;;;19.20;62.90;;;;;;5012344;28;89252;-80
2022/11/23 07:45:06;;;;;;;4.13;1.13;;;19.20;61.30;;;;;;5014750;27;88983;-80
2022/11/23 07:47:31;;;;;;;;;;;19.20;61.90;;;;;;5015873;28;87410;-80
2022/11/23 07:49:57;;;;;;;3.72;1.60;;;19.20;62.40;;;;;;5017946;28;87259;-80
2022/11/23 07:52:23;;;;;;;3.25;1.50;;;19.20;61.80;;;;;;5017386;28;88076;-82
2022/11/23 07:54:48;;;;;;;7.47;2.25;;;19.30;60.70;;;;;;5023850;28;88953;-81
2022/11/23 07:57:14;;;;;;;10.82;2.00;;;19.40;58.50;;;;;;5019814;27;87253;-82
2022/11/23 07:59:39;;;;;;;5.28;1.98;;;19.60;58.10;;;;;;5021162;28;86956;-82
2022/11/23 08:02:08;;;;;;;9.85;1.70;;;19.70;57.70;;;;;;5015830;28;88081;-81
2022/11/23 08:04:34;;;;;;;4.72;1.83;;;19.80;59.80;;;;;;5015295;28;87328;-81
2022/11/23 08:07:01;;;;;;;6.40;1.60;;;19.80;60.90;;;;;;5019404;28;88363;-81
2022/11/23 08:09:27;;;;;;;5.88;1.83;;;19.80;61.10;;;;;;5016201;28;87907;-81
2022/11/23 08:11:52;;;;;;;8.38;1.90;;;19.80;61.20;;;;;;5012073;27;88232;-80
2022/11/23 08:14:18;;;;;;;7.55;1.60;;;19.90;61.10;;;;;;5017508;28;87620;-80
2022/11/23 08:16:47;;;;;;;11.00;1.95;;;19.90;61.50;;;;;;5012791;28;87336;-80
2022/11/23 08:19:12;;;;;;;6.88;1.77;;;19.90;61.50;;;;;;5017007;28;86988;-80
2022/11/23 08:21:38;;;;;;;4.13;1.42;;;19.90;61.40;;;;;;5017938;28;88449;-80
2022/11/23 08:24:04;;;;;;;4.60;1.55;;;19.90;61.50;;;;;;5017520;28;88155;-80
2022/11/23 08:26:30;;;;;;;5.00;1.80;;;20.00;61.80;;;;;;5013923;28;87827;-80
2022/11/23 08:28:56;;;;;;;5.55;1.95;;;20.00;61.90;;;;;;5015305;28;87838;-80
2022/11/23 08:31:22;;;;;;;3.30;1.40;;;19.90;62.10;;;;;;5013412;28;89499;-80
2022/11/23 08:33:47;;;;;;;6.88;1.70;;;19.90;61.90;;;;;;5015677;28;89146;-80
2022/11/23 08:36:13;;;;;;;4.57;2.00;;;20.00;62.00;;;;;;5016643;28;86988;-80
2022/11/23 08:38:39;;;;;;;5.13;1.92;;;20.00;62.20;;;;;;5012013;28;87867;-80
2022/11/23 08:41:04;;;;;;;5.60;1.58;;;20.00;62.00;;;;;;5012014;27;88710;-80
2022/11/23 08:43:30;;;;;;;4.80;1.50;;;20.10;61.80;;;;;;5013748;28;88086;-80
2022/11/23 08:45:57;;;;;;;4.55;1.58;;;20.10;62.00;;;;;;5016240;28;86936;-80
2022/11/23 08:48:23;;;;;;;3.28;1.52;;;20.10;62.10;;;;;;5011194;28;87959;-80
2022/11/23 08:50:50;;;;;;;4.78;1.50;;;20.10;62.10;;;;;;5015234;28;87727;-80
2022/11/23 08:53:16;;;;;;;4.60;1.48;;;20.10;62.10;;;;;;5013693;27;88229;-80
2022/11/23 08:55:41;;;;;;;4.32;1.50;;;20.10;62.10;;;;;;5013827;28;88037;-81
2022/11/23 08:58:07;;;;;;;4.68;1.75;;;20.10;62.10;;;;;;5015220;28;87233;-81
2022/11/23 09:00:34;;;;;;;6.18;1.60;;;20.10;62.20;;;;;;5016775;28;88050;-81
2022/11/23 09:03:00;;;;;;;4.57;1.23;;;20.10;62.30;;;;;;5001957;28;88273;-81
2022/11/23 09:05:27;;;;;;;4.53;1.30;;;20.10;62.20;;;;;;4995401;28;87649;-82
2022/11/23 09:07:53;;;;;;;4.65;1.90;;;20.10;62.40;;;;;;4995933;28;87197;-81
2022/11/23 09:10:19;;;;;;;9.05;1.75;;;20.10;62.40;;;;;;4993780;28;90755;-80
2022/11/23 09:12:47;;;;;;;4.53;1.60;;;20.20;62.10;;;;;;5015232;28;87809;-80
2022/11/23 09:15:13;;;;;;;6.78;1.70;;;20.20;62.20;;;;;;5015328;28;87311;-81
2022/11/23 09:17:39;;;;;;;7.90;2.22;;;20.20;62.30;;;;;;5015019;27;87521;-80
2022/11/23 09:20:05;;;;;;;6.10;1.60;;;20.20;62.00;;;;;;5014627;27;89777;-80
2022/11/23 09:22:31;;;;;;;5.40;2.00;;;20.20;62.20;;;;;;5016852;27;89266;-80
2022/11/23 09:24:56;;;;;;;11.60;3.10;;;20.20;62.20;;;;;;5013077;28;87526;-80
2022/11/23 09:27:23;;;;;;;9.88;2.97;;;20.20;62.60;;;;;;5012064;27;87572;-80
2022/11/23 09:29:49;;;;;;;13.70;2.80;;;20.20;62.40;;;;;;5014901;27;88735;-81
2022/11/23 09:32:14;;;;;;;19.38;3.78;;;20.20;62.30;;;;;;5015772;28;87747;-80
2022/11/23 09:34:40;;;;;;;13.05;3.50;;;20.40;60.60;;;;;;5014565;27;87410;-80
2022/11/23 09:37:06;;;;;;;16.17;3.78;;;20.50;59.90;;;;;;5015579;28;86773;-80
2022/11/23 09:39:32;;;;;;;26.60;5.95;;;20.50;59.50;;;;;;5014402;28;88425;-80
2022/11/23 09:42:01;;;;;;;19.27;4.90;;;20.50;59.20;;;;;;5014592;28;88838;-80
2022/11/23 09:45:00;;;;;;;15.38;4.05;;;20.60;59.00;;;;;;5012496;28;88571;-80
2022/11/23 09:47:29;;;;;;;13.30;3.83;;;20.60;58.70;;;;;;5014521;28;87695;-81
2022/11/23 09:50:23;;;;;;;15.10;3.83;;;20.70;58.20;;;;;;5010752;27;88491;-80
2022/11/23 09:52:50;;;;;;;18.02;3.63;;;20.70;57.90;;;;;;5013216;27;88631;-82
2022/11/23 09:55:26;;;;;;;24.35;5.47;;;20.60;58.30;;;;;;5015521;28;87514;-79
2022/11/23 09:57:58;;;;;;;16.13;4.10;;;20.70;57.90;;;;;;5012255;27;87929;-80
2022/11/23 10:00:25;;;;;;;14.68;4.35;;;20.60;57.70;;;;;;5014638;27;88288;-80
2022/11/23 10:02:50;;;;;;;22.33;4.78;;;20.70;56.50;;;;;;5010082;28;87072;-80
2022/11/23 10:05:22;;;;;;;15.68;4.13;;;20.70;56.50;;;;;;5011051;28;87329;-80
2022/11/23 10:08:07;;;;;;;19.38;4.20;;;20.60;57.10;;;;;;5010796;27;88394;-80
2022/11/23 10:10:46;;;;;;;20.30;4.93;;;20.40;57.70;;;;;;5012054;28;89791;-80
2022/11/23 10:13:33;;;;;;;12.48;4.47;;;20.40;58.00;;;;;;5013608;28;89216;-80
2022/11/23 10:16:47;;;;;;;16.75;4.60;;;20.30;58.40;;;;;;5012809;28;87289;-80
2022/11/23 10:19:26;;;;;;;17.05;5.22;;;20.30;58.40;;;;;;4950251;28;91356;-80
2022/11/23 10:22:17;;;;;;;11.52;4.82;;;20.20;58.90;;;;;;4952982;28;87695;-80
2022/11/23 10:24:49;;;;;;;14.23;4.25;;;20.20;59.10;;;;;;4928651;28;94135;-80
2022/11/23 10:27:20;;;;;;;14.45;4.57;;;20.20;59.10;;;;;;4933546;28;87304;-80
2022/11/23 10:29:46;;;;;;;16.60;4.80;;;20.20;59.10;;;;;;4940327;28;90907;-80
2022/11/23 10:32:24;;;;;;;14.88;4.13;;;20.20;59.10;;;;;;4949064;28;88404;-80
2022/11/23 10:35:04;;;;;;;13.32;4.60;;;20.20;59.10;;;;;;4949849;28;88553;-80
2022/11/23 10:37:31;;;;;;;11.73;3.92;;;20.20;59.20;;;;;;4948889;28;88777;-80
2022/11/23 10:39:57;;;;;;;19.27;4.57;;;20.20;59.40;;;;;;4949425;28;87103;-80
2022/11/23 10:42:35;;;;;;;12.75;4.05;;;20.20;59.20;;;;;;4947470;28;87973;-80
2022/11/23 10:45:00;;;;;;;9.68;3.72;;;20.20;59.50;;;;;;4948146;28;87755;-80
2022/11/23 10:47:57;;;;;;;16.80;4.72;;;20.20;59.40;;;;;;4937989;28;87263;-80
2022/11/23 10:50:36;;;;;;;14.52;3.75;;;20.20;59.40;;;;;;4944476;28;90266;-80
2022/11/23 10:53:04;;;;;;;13.43;3.83;;;20.20;59.70;;;;;;4961361;28;88367;-80
2022/11/23 10:55:32;;;;;;;13.23;3.95;;;20.20;59.70;;;;;;4971743;28;87865;-80
2022/11/23 10:57:59;;;;;;;15.07;3.80;;;20.20;59.70;;;;;;4975506;28;86991;-80
2022/11/23 11:00:27;;;;;;;15.90;3.92;;;20.20;59.60;;;;;;4971776;28;89052;-80
2022/11/23 11:02:55;;;;;;;13.68;3.95;;;20.20;59.70;;;;;;5008686;27;89976;-80
2022/11/23 11:05:26;;;;;;;15.32;4.35;;;20.20;59.70;;;;;;5016326;28;88245;-80
2022/11/23 11:07:53;;;;;;;14.30;3.92;;;20.20;59.70;;;;;;5016980;28;87385;-80
2022/11/23 11:10:44;;;;;;;11.55;3.63;;;20.20;60.00;;;;;;5012316;27;87605;-81
2022/11/23 11:13:23;;;;;;;13.05;3.47;;;20.20;59.80;;;;;;5014665;28;89869;-80
2022/11/23 11:16:05;;;;;;;12.57;4.45;;;20.20;59.80;;;;;;5014989;28;92523;-80
2022/11/23 11:18:34;;;;;;;11.27;3.20;;;20.20;59.90;;;;;;5014935;28;87095;-80
2022/11/23 11:21:03;;;;;;;14.93;4.07;;;20.20;60.00;;;;;;5016724;27;86740;-81
2022/11/23 11:23:30;;;;;;;27.13;4.78;;;20.20;59.90;;;;;;5014396;27;89068;-80
2022/11/23 11:26:18;;;;;;;14.85;3.47;;;20.30;59.70;;;;;;5017151;27;88034;-81
2022/11/23 11:28:48;;;;;;;11.90;3.58;;;20.40;59.00;;;;;;5014571;28;88494;-82
2022/11/23 11:31:35;;;;;;;11.82;3.45;;;20.30;59.00;;;;;;5014980;27;87520;-80
2022/11/23 11:34:00;;;;;;;14.90;4.15;;;20.40;59.50;;;;;;5017095;28;87538;-82
2022/11/23 11:36:36;;;;;;;13.63;3.97;;;20.50;60.00;;;;;;5014364;27;87583;-80
2022/11/23 11:39:09;;;;;;;12.90;3.15;;;20.70;60.70;;;;;;5016043;27;87058;-80
2022/11/23 11:41:36;;;;;;;9.57;3.80;;;20.80;60.90;;;;;;5010407;28;88030;-80
2022/11/23 11:44:08;;;;;;;11.75;3.67;;;20.90;60.90;;;;;;5015209;27;87800;-79
2022/11/23 11:46:41;;;;;;;10.95;3.53;;;21.00;61.00;;;;;;5016438;27;87884;-80
2022/11/23 11:49:21;;;;;;;7.65;3.08;;;21.20;61.10;;;;;;5013136;28;87319;-80
2022/11/23 11:52:13;;;;;;;9.20;3.17;;;21.30;61.30;;;;;;5013246;28;92572;-81
2022/11/23 11:55:03;;;;;;;14.20;3.30;;;21.40;61.20;;;;;;5015658;27;92544;-81
2022/11/23 11:57:36;;;;;;;14.18;3.63;;;21.40;58.40;;;;;;4944112;28;92559;-82
2022/11/23 12:00:06;;;;;;;12.10;3.40;;;21.50;59.90;;;;;;4927418;28;88527;-81
2022/11/23 12:02:47;;;;;;;12.13;3.42;;;21.50;59.90;;;;;;4902740;28;87560;-82
2022/11/23 12:05:24;;;;;;;13.85;3.20;;;21.50;60.00;;;;;;4943789;28;88649;-82
2022/11/23 12:07:58;;;;;;;14.75;3.78;;;21.50;60.20;;;;;;4944304;28;88588;-81
2022/11/23 12:10:28;;;;;;;11.40;3.42;;;21.50;60.60;;;;;;4943648;28;87685;-82
2022/11/23 12:12:55;;;;;;;15.80;3.35;;;21.60;59.50;;;;;;4926471;28;87059;-81
2022/11/23 12:15:32;;;;;;;13.15;3.63;;;21.50;60.10;;;;;;4940120;28;88505;-81
2022/11/23 12:18:10;;;;;;;11.63;2.95;;;21.50;60.10;;;;;;4928048;28;89263;-81
2022/11/23 12:20:59;;;;;;;11.35;3.33;;;21.50;60.50;;;;;;4922109;28;88513;-81
2022/11/23 12:23:56;;;;;;;13.13;3.35;;;21.50;60.80;;;;;;4933183;28;87517;-81
2022/11/23 12:26:37;;;;;;;12.50;3.35;;;21.50;60.90;;;;;;4942715;28;88633;-81
2022/11/23 12:29:13;;;;;;;10.10;3.13;;;21.50;60.90;;;;;;4941911;28;87612;-81
2022/11/23 12:31:42;;;;;;;13.45;3.40;;;21.40;60.80;;;;;;4943128;28;86982;-81
2022/11/23 12:34:39;;;;;;;11.67;2.90;;;21.40;60.80;;;;;;4956503;28;87412;-81
2022/11/23 12:37:27;;;;;;;10.80;3.22;;;21.40;61.20;;;;;;4972050;28;92544;-82
2022/11/23 12:40:19;;;;;;;12.35;3.10;;;21.40;60.90;;;;;;4968655;28;92326;-81
2022/11/23 12:42:53;;;;;;;15.25;3.50;;;21.50;60.10;;;;;;4974112;28;88424;-81
2022/11/23 12:45:33;;;;;;;16.55;3.53;;;21.60;60.20;;;;;;4971005;28;87591;-80
2022/11/23 12:48:20;;;;;;;31.80;8.35;;;21.70;59.90;;;;;;4957613;28;89253;-82
2022/11/23 12:51:01;;;;;;;76.25;24.88;;;21.80;59.30;;;;;;4951202;28;88959;-82
2022/11/23 12:53:39;;;;;;;56.65;17.92;;;21.80;57.50;;;;;;4950528;28;87409;-81
2022/11/23 12:56:25;;;;;;;56.75;19.30;;;21.90;58.00;;;;;;4952917;28;87424;-80